createdAt,value
2023-04-16T00:01:02.267Z,29.50
2023-04-16T00:08:05.162Z,30.00
2023-04-16T00:14:55.397Z,30.80
2023-04-16T00:21:57.211Z,31.20
2023-04-16T00:29:00.911Z,30.00
2023-04-16T00:35:43.679Z,28.80
2023-04-16T00:42:39.243Z,29.90
2023-04-16T00:49:22.097Z,34.60
2023-04-16T00:56:24.881Z,33.90
2023-04-16T01:03:27.955Z,43.70
2023-04-16T01:10:31.120Z,50.40
2023-04-16T01:17:22.949Z,35.40
2023-04-16T01:24:28.126Z,35.00
2023-04-16T01:31:11.408Z,45.70
2023-04-16T01:38:12.565Z,39.70
2023-04-16T01:45:16.167Z,43.10
2023-04-16T01:52:00.218Z,43.10
2023-04-16T01:59:03.125Z,47.20
2023-04-16T02:05:51.221Z,43.10
2023-04-16T02:12:54.295Z,55.90
2023-04-16T02:19:50.274Z,37.60
2023-04-16T02:26:53.336Z,36.20
2023-04-16T02:33:56.209Z,34.60
2023-04-16T02:40:59.284Z,53.30
2023-04-16T02:47:41.991Z,39.50
2023-04-16T02:54:44.851Z,40.30
2023-04-16T03:01:38.276Z,35.40
2023-04-16T03:08:32.743Z,37.40
2023-04-16T03:15:37.698Z,30.20
2023-04-16T03:22:46.575Z,22.20
2023-04-16T03:29:52.779Z,31.50
2023-04-16T03:36:55.766Z,23.50
2023-04-16T03:44:01.391Z,25.00
2023-04-16T03:51:04.395Z,22.40
2023-04-16T03:58:07.186Z,24.20
2023-04-16T04:04:57.733Z,25.30
2023-04-16T04:11:45.810Z,24.60
2023-04-16T04:18:48.759Z,34.50
2023-04-16T04:25:51.595Z,34.90
2023-04-16T04:32:47.121Z,45.60
2023-04-16T04:39:26.900Z,48.10
2023-04-16T04:46:22.690Z,45.70
2023-04-16T04:53:18.066Z,48.20
2023-04-16T05:00:31.247Z,44.70
2023-04-16T05:07:28.062Z,48.40
2023-04-16T05:14:30.910Z,40.20
2023-04-16T05:21:23.786Z,40.90
2023-04-16T05:28:23.839Z,40.90
2023-04-16T05:35:23.776Z,41.50
2023-04-16T05:42:12.145Z,38.30
2023-04-16T05:49:00.072Z,35.60
2023-04-16T05:55:37.268Z,32.50
2023-04-16T06:09:06.418Z,29.90
2023-04-16T06:15:55.397Z,29.90
2023-04-16T06:22:52.817Z,25.90
2023-04-16T06:29:59.394Z,22.80
2023-04-16T06:44:15.567Z,19.30
2023-04-16T06:51:00.476Z,16.90
2023-04-16T06:57:16.801Z,13.20
2023-04-16T07:04:19.289Z,14.90
2023-04-16T07:10:55.403Z,14.10
2023-04-16T07:17:25.434Z,16.30
2023-04-16T07:24:05.392Z,12.80
2023-04-16T07:30:33.402Z,10.40
2023-04-16T07:37:01.504Z,11.00
2023-04-16T07:43:46.931Z,9.70
2023-04-16T07:50:29.236Z,9.10
2023-04-16T07:57:17.826Z,10.50
2023-04-16T08:04:28.926Z,8.80
2023-04-16T08:11:16.270Z,9.30
2023-04-16T08:18:19.148Z,9.80
2023-04-16T08:25:14.630Z,9.00
2023-04-16T08:31:37.123Z,10.50
2023-04-16T08:48:27.809Z,9.80
2023-04-16T08:55:20.232Z,6.90
2023-04-16T09:02:15.166Z,7.40
2023-04-16T09:09:18.254Z,7.40
2023-04-16T09:16:16.967Z,7.20
2023-04-16T09:23:21.492Z,7.60
2023-04-16T09:30:22.389Z,4.60
2023-04-16T09:36:58.868Z,6.10
2023-04-16T09:43:56.171Z,7.60
2023-04-16T09:50:26.463Z,13.20
2023-04-16T09:56:57.794Z,12.90
2023-04-16T10:03:08.149Z,11.00
2023-04-16T10:09:46.157Z,9.90
2023-04-16T10:14:59.302Z,8.90
2023-04-16T10:20:02.898Z,8.60
2023-04-16T10:25:28.424Z,6.70
2023-04-16T10:30:57.510Z,6.10
2023-04-16T10:36:32.616Z,7.50
2023-04-16T10:47:56.378Z,7.00
2023-04-16T10:53:26.279Z,7.20
2023-04-16T10:58:40.061Z,7.70
2023-04-16T11:04:40.342Z,6.40
2023-04-16T11:10:14.016Z,4.80
2023-04-16T11:15:19.955Z,5.50
2023-04-16T11:20:24.427Z,6.50
2023-04-16T11:25:31.256Z,6.30
2023-04-16T11:30:35.647Z,5.90
2023-04-16T11:40:42.511Z,5.00
2023-04-16T11:46:02.659Z,6.90
2023-04-16T11:51:08.003Z,6.00
2023-04-16T11:56:30.956Z,3.70
2023-04-16T12:01:37.163Z,3.80
2023-04-16T12:07:09.487Z,2.90
2023-04-16T12:13:53.113Z,5.10
2023-04-16T12:19:22.332Z,3.70
2023-04-16T12:24:37.571Z,6.90
2023-04-16T12:30:08.567Z,6.50
2023-04-16T12:35:13.030Z,6.70
2023-04-16T12:40:16.242Z,4.30
2023-04-16T12:45:18.259Z,6.30
2023-04-16T12:50:28.378Z,7.80
2023-04-16T12:55:31.745Z,7.60
2023-04-16T13:00:37.733Z,5.90
2023-04-16T13:05:42.829Z,6.10
2023-04-16T13:10:45.942Z,5.20
2023-04-16T13:15:57.836Z,6.00
2023-04-16T13:21:22.366Z,7.90
2023-04-16T13:26:55.852Z,7.10
2023-04-16T13:32:11.456Z,6.30
2023-04-16T13:37:13.746Z,3.90
2023-04-16T13:42:15.443Z,5.40
2023-04-16T13:47:19.487Z,26.70
2023-04-16T13:52:21.258Z,6.20
2023-04-16T13:57:22.859Z,5.80
2023-04-16T14:02:32.494Z,5.10
2023-04-16T14:07:54.348Z,7.80
2023-04-16T14:12:59.627Z,8.60
2023-04-16T14:18:17.258Z,8.80
2023-04-16T14:23:19.130Z,7.50
2023-04-16T14:28:20.946Z,8.80
2023-04-16T14:33:25.272Z,7.30
2023-04-16T14:38:32.984Z,6.10
2023-04-16T14:43:35.471Z,6.60
2023-04-16T14:48:37.228Z,9.20
2023-04-16T14:53:40.137Z,7.20
2023-04-16T14:58:42.931Z,6.10
2023-04-16T15:03:46.210Z,8.20
2023-04-16T15:08:48.153Z,8.60
2023-04-16T15:13:49.795Z,7.90
2023-04-16T15:18:52.560Z,9.70
2023-04-16T15:23:57.483Z,7.10
2023-04-16T15:29:02.281Z,7.00
2023-04-16T15:34:30.112Z,8.60
2023-04-16T15:39:39.148Z,9.10
2023-04-16T15:44:46.083Z,10.10
2023-04-16T15:50:28.261Z,13.30
2023-04-16T15:56:15.445Z,12.10
2023-04-16T16:02:00.631Z,11.50
2023-04-16T16:07:20.205Z,12.40
2023-04-16T16:12:36.720Z,11.90
2023-04-16T16:18:10.225Z,15.10
2023-04-16T16:23:13.292Z,12.40
2023-04-16T16:28:34.658Z,13.80
2023-04-16T16:33:40.851Z,13.00
2023-04-16T16:38:52.401Z,12.50
2023-04-16T16:44:38.794Z,11.00
2023-04-16T16:49:46.663Z,12.10
2023-04-16T16:54:56.477Z,12.80
2023-04-16T17:00:19.230Z,12.50
2023-04-16T17:05:32.870Z,14.60
2023-04-16T17:10:48.983Z,14.80
2023-04-16T17:22:15.105Z,18.40
2023-04-16T17:27:51.273Z,19.10
2023-04-16T17:33:21.675Z,17.30
2023-04-16T17:38:43.625Z,19.60
2023-04-16T17:43:50.775Z,27.10
2023-04-16T17:49:15.687Z,27.00
2023-04-16T17:54:31.209Z,23.40
2023-04-16T17:59:37.483Z,24.30
2023-04-16T18:04:40.988Z,19.20
2023-04-16T18:09:42.917Z,22.10
2023-04-16T18:14:46.281Z,20.30
2023-04-16T18:19:58.601Z,25.80
2023-04-16T18:25:04.345Z,25.20
2023-04-16T18:35:14.477Z,25.10
2023-04-16T18:40:17.079Z,24.80
2023-04-16T18:45:21.828Z,23.30
2023-04-16T18:50:25.652Z,24.50
2023-04-16T18:55:27.419Z,25.90
2023-04-16T19:00:29.281Z,27.60
2023-04-16T19:05:32.112Z,26.30
2023-04-16T19:10:34.396Z,23.70
2023-04-16T19:15:39.616Z,31.10
2023-04-16T19:20:44.189Z,23.80
2023-04-16T19:26:18.009Z,23.40
2023-04-16T19:31:47.742Z,25.50
2023-04-16T19:37:34.288Z,24.90
2023-04-16T19:42:56.435Z,24.00
2023-04-16T19:48:15.806Z,23.10
2023-04-16T19:53:37.418Z,26.10
2023-04-16T19:58:44.055Z,25.10
2023-04-16T20:03:49.926Z,26.40
2023-04-16T20:09:53.014Z,26.40
2023-04-16T20:16:18.483Z,27.00
2023-04-16T20:22:19.927Z,29.70
2023-04-16T20:28:41.295Z,31.70
2023-04-16T20:34:03.432Z,29.40
2023-04-16T20:39:09.121Z,34.40
2023-04-16T20:44:17.708Z,37.90
2023-04-16T20:49:49.544Z,36.40
2023-04-16T20:54:53.940Z,32.20
2023-04-16T21:00:22.736Z,35.30
2023-04-16T21:05:29.428Z,33.50
2023-04-16T21:10:35.876Z,33.00
2023-04-16T21:15:47.848Z,29.10
2023-04-16T21:20:50.498Z,30.80
2023-04-16T21:25:56.022Z,31.80
2023-04-16T21:31:02.188Z,31.90
2023-04-16T21:36:06.506Z,35.00
2023-04-16T21:41:11.825Z,45.60
2023-04-16T21:46:17.588Z,36.50
2023-04-16T21:51:28.283Z,37.70
2023-04-16T21:56:30.054Z,47.50
2023-04-16T22:01:51.999Z,38.20
2023-04-16T22:06:57.183Z,36.40
2023-04-16T22:12:13.657Z,40.20
2023-04-16T22:17:16.891Z,38.40
2023-04-16T22:22:21.934Z,35.10
2023-04-16T22:27:23.543Z,35.80
2023-04-16T22:32:25.587Z,35.00
2023-04-16T22:37:33.096Z,35.70
2023-04-16T22:42:39.976Z,37.00
2023-04-16T22:47:44.684Z,34.80
2023-04-16T22:52:52.362Z,42.10
2023-04-16T22:57:59.788Z,34.00
2023-04-16T23:03:04.752Z,32.20
2023-04-16T23:08:10.104Z,32.80
2023-04-16T23:13:34.455Z,36.50
2023-04-16T23:19:28.823Z,28.80
2023-04-16T23:24:39.266Z,30.90
2023-04-16T23:30:43.072Z,29.20
2023-04-16T23:36:05.052Z,33.30
2023-04-16T23:41:16.270Z,30.90
2023-04-16T23:46:20.887Z,30.00
2023-04-16T23:52:23.442Z,33.20
2023-04-16T23:58:47.624Z,34.00
